createdAt,value
2022-10-31T00:01:47.305Z,21.63
2022-10-31T00:04:16.920Z,29.42
2022-10-31T00:06:43.668Z,23.27
2022-10-31T00:09:12.096Z,19.75
2022-10-31T00:11:39.286Z,25.58
2022-10-31T00:14:06.769Z,24.17
2022-10-31T00:16:39.473Z,23.30
2022-10-31T00:19:11.731Z,21.10
2022-10-31T00:21:39.511Z,20.23
2022-10-31T00:24:07.452Z,23.38
2022-10-31T00:26:38.008Z,24.45
2022-10-31T00:29:05.280Z,19.13
2022-10-31T00:31:32.434Z,24.20
2022-10-31T00:34:01.070Z,18.75
2022-10-31T00:36:27.935Z,20.35
2022-10-31T00:38:57.723Z,26.35
2022-10-31T00:41:25.103Z,21.90
2022-10-31T00:43:51.990Z,22.45
2022-10-31T00:46:19.084Z,21.92
2022-10-31T00:48:45.828Z,18.02
2022-10-31T00:51:12.748Z,23.58
2022-10-31T00:53:41.529Z,19.95
2022-10-31T00:56:08.844Z,21.20
2022-10-31T00:58:36.457Z,19.63
2022-10-31T01:01:06.334Z,20.33
2022-10-31T01:03:35.989Z,25.02
2022-10-31T01:06:11.196Z,22.58
2022-10-31T01:08:39.588Z,22.10
2022-10-31T01:11:17.553Z,22.00
2022-10-31T01:13:44.800Z,24.60
2022-10-31T01:16:13.930Z,21.48
2022-10-31T01:18:43.633Z,23.20
2022-10-31T01:21:12.962Z,20.30
2022-10-31T01:23:41.296Z,27.20
2022-10-31T01:26:19.636Z,21.42
2022-10-31T01:29:08.107Z,26.70
2022-10-31T01:31:39.440Z,23.35
2022-10-31T01:34:08.383Z,21.90
2022-10-31T01:36:38.865Z,24.25
2022-10-31T01:39:15.334Z,26.60
2022-10-31T01:41:48.906Z,20.02
2022-10-31T01:44:15.889Z,18.60
2022-10-31T01:47:14.569Z,17.75
2022-10-31T01:49:43.988Z,21.95
2022-10-31T01:52:17.777Z,20.42
2022-10-31T01:54:49.642Z,25.48
2022-10-31T01:57:19.582Z,24.00
2022-10-31T01:59:50.823Z,22.17
2022-10-31T02:02:20.004Z,30.42
2022-10-31T02:04:50.036Z,26.48
2022-10-31T02:07:28.317Z,21.52
2022-10-31T02:10:00.421Z,22.60
2022-10-31T02:12:27.658Z,22.77
2022-10-31T02:15:00.425Z,18.50
2022-10-31T02:17:27.797Z,21.88
2022-10-31T02:20:17.682Z,24.60
2022-10-31T02:23:33.390Z,24.52
2022-10-31T02:26:26.186Z,20.98
2022-10-31T02:29:20.978Z,21.42
2022-10-31T02:31:52.736Z,23.48
2022-10-31T02:34:30.376Z,24.43
2022-10-31T02:37:07.348Z,21.80
2022-10-31T02:39:48.896Z,22.33
2022-10-31T02:42:39.429Z,20.13
2022-10-31T02:45:20.499Z,29.73
2022-10-31T02:47:51.756Z,19.25
2022-10-31T02:50:39.088Z,21.02
2022-10-31T02:53:08.691Z,23.65
2022-10-31T02:55:35.502Z,20.65
2022-10-31T02:58:12.962Z,28.40
2022-10-31T03:01:18.596Z,28.20
2022-10-31T03:04:10.906Z,27.30
2022-10-31T03:06:58.687Z,32.65
2022-10-31T03:09:44.144Z,26.20
2022-10-31T03:12:20.431Z,23.95
2022-10-31T03:14:57.680Z,23.52
2022-10-31T03:17:48.895Z,21.73
2022-10-31T03:20:19.297Z,22.92
2022-10-31T03:22:52.301Z,26.33
2022-10-31T03:25:20.882Z,24.73
2022-10-31T03:27:49.121Z,24.52
2022-10-31T03:30:18.165Z,27.63
2022-10-31T03:32:58.947Z,23.75
2022-10-31T03:35:28.437Z,20.38
2022-10-31T03:37:57.268Z,30.85
2022-10-31T03:40:28.094Z,26.48
2022-10-31T03:43:00.932Z,23.63
2022-10-31T03:45:31.381Z,28.17
2022-10-31T03:48:03.398Z,23.98
2022-10-31T03:50:51.057Z,28.52
2022-10-31T03:53:38.136Z,24.45
2022-10-31T03:56:25.391Z,26.15
2022-10-31T03:59:17.528Z,26.83
2022-10-31T04:01:51.676Z,26.38
2022-10-31T04:04:21.227Z,25.77
2022-10-31T04:06:51.962Z,24.27
2022-10-31T04:09:20.464Z,23.88
2022-10-31T04:11:52.670Z,25.00
2022-10-31T04:14:45.913Z,27.38
2022-10-31T04:17:17.126Z,25.75
2022-10-31T04:19:45.299Z,27.83
2022-10-31T04:22:13.039Z,26.15
2022-10-31T04:24:41.423Z,28.95
2022-10-31T04:27:13.307Z,26.23
2022-10-31T04:29:40.524Z,26.45
2022-10-31T04:32:09.263Z,24.73
2022-10-31T04:34:37.139Z,27.42
2022-10-31T04:37:05.380Z,23.25
2022-10-31T04:39:35.590Z,28.08
2022-10-31T04:42:33.314Z,26.90
2022-10-31T04:45:05.277Z,27.10
2022-10-31T04:47:34.657Z,30.00
2022-10-31T04:50:06.313Z,27.73
2022-10-31T04:52:42.311Z,31.95
2022-10-31T04:55:12.487Z,28.05
2022-10-31T04:58:12.819Z,21.50
2022-10-31T05:00:41.067Z,28.00
2022-10-31T05:03:08.449Z,30.45
2022-10-31T05:05:35.596Z,26.38
2022-10-31T05:08:05.098Z,25.83
2022-10-31T05:10:32.966Z,31.65
2022-10-31T05:13:05.758Z,26.48
2022-10-31T05:15:54.298Z,29.40
2022-10-31T05:18:27.367Z,24.30
2022-10-31T05:21:12.604Z,30.58
2022-10-31T05:23:53.209Z,30.00
2022-10-31T05:26:22.609Z,25.60
2022-10-31T05:28:50.466Z,21.30
2022-10-31T05:31:17.741Z,24.00
2022-10-31T05:33:44.760Z,29.10
2022-10-31T05:36:30.348Z,29.38
2022-10-31T05:39:03.870Z,28.00
2022-10-31T05:41:41.440Z,27.10
2022-10-31T05:44:26.356Z,28.58
2022-10-31T05:47:02.260Z,30.42
2022-10-31T05:49:51.687Z,29.55
2022-10-31T05:52:24.659Z,36.45
2022-10-31T05:54:59.282Z,34.85
2022-10-31T05:57:30.488Z,42.33
2022-10-31T05:59:57.530Z,32.22
2022-10-31T06:02:24.650Z,39.28
2022-10-31T06:05:27.461Z,33.40
2022-10-31T06:07:55.692Z,29.20
2022-10-31T06:10:24.968Z,33.47
2022-10-31T06:12:56.115Z,36.75
2022-10-31T06:15:43.526Z,38.00
2022-10-31T06:18:12.328Z,37.67
2022-10-31T06:20:48.458Z,36.13
2022-10-31T06:23:16.267Z,30.67
2022-10-31T06:25:49.979Z,33.67
2022-10-31T06:28:17.860Z,32.47
2022-10-31T06:30:54.234Z,37.80
2022-10-31T06:33:22.236Z,34.30
2022-10-31T06:36:02.603Z,37.47
2022-10-31T06:38:30.043Z,38.60
2022-10-31T06:40:58.946Z,40.65
2022-10-31T06:43:27.543Z,42.22
2022-10-31T06:46:13.461Z,42.47
2022-10-31T06:48:48.918Z,43.50
2022-10-31T06:51:21.877Z,37.30
2022-10-31T06:53:51.459Z,44.10
2022-10-31T06:56:19.130Z,45.45
2022-10-31T06:58:50.005Z,48.10
2022-10-31T07:01:40.750Z,46.00
2022-10-31T07:04:10.487Z,47.47
2022-10-31T07:06:37.449Z,43.05
2022-10-31T07:09:06.856Z,39.97
2022-10-31T07:11:33.774Z,45.80
2022-10-31T07:14:05.045Z,40.67
2022-10-31T07:16:31.988Z,53.35
2022-10-31T07:18:58.914Z,51.90
2022-10-31T07:21:25.898Z,46.25
2022-10-31T07:23:57.630Z,40.70
2022-10-31T07:26:43.453Z,45.28
2022-10-31T07:29:13.859Z,48.47
2022-10-31T07:31:45.092Z,52.00
2022-10-31T07:34:18.857Z,47.35
2022-10-31T07:37:04.956Z,71.53
2022-10-31T07:39:34.465Z,50.53
2022-10-31T07:42:01.581Z,52.80
2022-10-31T07:44:28.989Z,50.47
2022-10-31T07:47:17.111Z,48.53
2022-10-31T07:50:27.388Z,45.03
2022-10-31T07:53:35.742Z,44.38
2022-10-31T07:56:12.893Z,45.53
2022-10-31T07:58:42.022Z,46.20
2022-10-31T08:03:48.576Z,52.10
2022-10-31T08:06:36.181Z,51.25
2022-10-31T08:09:21.167Z,54.28
2022-10-31T08:11:49.840Z,48.65
2022-10-31T08:14:17.524Z,51.63
2022-10-31T08:16:46.076Z,48.05
2022-10-31T08:19:16.161Z,42.88
2022-10-31T08:21:44.105Z,40.65
2022-10-31T08:24:13.102Z,48.70
2022-10-31T08:26:41.790Z,39.83
2022-10-31T08:29:10.757Z,44.45
2022-10-31T08:31:42.961Z,46.58
2022-10-31T08:34:30.200Z,47.63
2022-10-31T08:37:32.826Z,40.33
2022-10-31T08:40:08.152Z,41.70
2022-10-31T08:42:41.280Z,41.65
2022-10-31T08:45:11.792Z,41.17
2022-10-31T08:47:41.164Z,39.20
2022-10-31T08:50:08.822Z,48.13
2022-10-31T08:53:02.924Z,44.55
2022-10-31T08:55:23.713Z,45.85
2022-10-31T08:58:13.380Z,40.97
2022-10-31T09:00:53.983Z,45.33
2022-10-31T09:03:25.304Z,42.63
2022-10-31T09:05:57.281Z,39.50
2022-10-31T09:08:24.554Z,40.80
2022-10-31T09:11:00.154Z,46.83
2022-10-31T09:13:45.883Z,40.95
2022-10-31T09:16:33.088Z,43.75
2022-10-31T09:19:08.672Z,49.10
2022-10-31T09:21:45.702Z,38.70
2022-10-31T09:24:12.900Z,47.33
2022-10-31T09:26:42.308Z,40.85
2022-10-31T09:29:27.312Z,56.78
2022-10-31T09:31:58.873Z,45.63
2022-10-31T09:34:31.402Z,49.22
2022-10-31T09:37:11.659Z,46.95
2022-10-31T09:39:42.661Z,46.13
2022-10-31T09:43:00.848Z,46.50
2022-10-31T09:45:59.149Z,45.38
2022-10-31T09:49:11.871Z,42.05
2022-10-31T09:52:04.383Z,42.25
2022-10-31T09:54:40.189Z,49.90
2022-10-31T09:57:16.601Z,43.10
2022-10-31T09:59:49.675Z,46.80
2022-10-31T10:02:35.834Z,47.22
2022-10-31T10:05:13.720Z,49.40
2022-10-31T10:08:09.263Z,43.28
2022-10-31T10:11:21.557Z,52.03
2022-10-31T10:14:13.981Z,48.38
2022-10-31T10:17:05.028Z,65.30
2022-10-31T10:19:55.121Z,58.55
2022-10-31T10:22:42.305Z,57.38
2022-10-31T10:25:12.083Z,54.50
2022-10-31T10:28:10.022Z,55.55
2022-10-31T10:31:00.355Z,51.80
2022-10-31T10:33:56.109Z,57.95
2022-10-31T10:36:43.047Z,52.97
2022-10-31T10:39:16.556Z,60.33
2022-10-31T10:44:14.010Z,55.67
2022-10-31T10:47:11.163Z,54.50
2022-10-31T10:49:40.934Z,57.67
2022-10-31T10:52:43.447Z,57.22
2022-10-31T10:55:31.821Z,55.33
2022-10-31T10:58:08.053Z,53.60
2022-10-31T11:00:51.258Z,57.92
2022-10-31T11:03:20.721Z,54.53
2022-10-31T11:06:01.619Z,57.95
2022-10-31T11:08:37.323Z,55.63
2022-10-31T11:11:33.566Z,57.15
2022-10-31T11:14:16.474Z,57.03
2022-10-31T11:16:46.921Z,55.33
2022-10-31T11:19:18.094Z,53.90
2022-10-31T11:21:52.749Z,52.78
2022-10-31T11:24:23.596Z,50.40
2022-10-31T11:26:52.153Z,50.13
2022-10-31T11:29:26.105Z,48.28
2022-10-31T11:31:56.846Z,52.38
2022-10-31T11:34:38.418Z,56.75
2022-10-31T11:37:31.074Z,52.67
2022-10-31T11:40:01.472Z,49.95
2022-10-31T11:42:39.923Z,52.58
2022-10-31T11:45:14.991Z,56.47
2022-10-31T11:47:48.947Z,60.10
2022-10-31T11:50:29.084Z,56.13
2022-10-31T11:52:56.940Z,52.15
2022-10-31T11:55:42.267Z,49.15
2022-10-31T11:58:32.638Z,50.72
2022-10-31T12:01:02.583Z,58.42
2022-10-31T12:04:00.058Z,50.33
2022-10-31T12:06:34.947Z,51.13
2022-10-31T12:09:01.785Z,52.97
2022-10-31T12:11:31.702Z,50.03
2022-10-31T12:14:20.136Z,55.17
2022-10-31T12:16:53.119Z,51.45
2022-10-31T12:19:43.538Z,49.03
2022-10-31T12:22:26.478Z,47.10
2022-10-31T12:27:53.650Z,56.72
2022-10-31T12:30:25.081Z,49.22
2022-10-31T12:33:35.048Z,55.22
2022-10-31T12:36:14.421Z,54.45
2022-10-31T12:39:05.810Z,49.13
2022-10-31T12:41:45.103Z,43.63
2022-10-31T12:44:42.090Z,42.80
2022-10-31T12:47:39.355Z,40.38
2022-10-31T12:50:25.723Z,37.30
2022-10-31T12:52:55.250Z,35.50
2022-10-31T12:55:59.522Z,34.50
2022-10-31T13:01:33.452Z,41.57
2022-10-31T13:04:05.463Z,45.28
2022-10-31T13:06:44.293Z,42.22
2022-10-31T13:09:19.212Z,39.65
2022-10-31T13:11:51.184Z,41.25
2022-10-31T13:14:40.510Z,39.38
2022-10-31T13:17:11.453Z,37.38
2022-10-31T13:19:45.223Z,36.15
2022-10-31T13:22:30.645Z,38.90
2022-10-31T13:25:18.700Z,38.92
2022-10-31T13:28:04.075Z,37.60
2022-10-31T13:30:34.817Z,45.15
2022-10-31T13:33:15.250Z,40.63
2022-10-31T13:35:45.435Z,43.10
2022-10-31T13:38:32.071Z,39.00
2022-10-31T13:41:15.709Z,34.10
2022-10-31T13:43:59.622Z,45.83
2022-10-31T13:49:28.583Z,32.83
2022-10-31T13:52:13.902Z,37.55
2022-10-31T13:54:44.948Z,35.05
2022-10-31T13:57:33.989Z,36.95
2022-10-31T14:00:28.191Z,35.70
2022-10-31T14:02:59.590Z,38.05
2022-10-31T14:05:36.113Z,39.10
2022-10-31T14:08:05.910Z,35.97
2022-10-31T14:10:49.556Z,37.75
2022-10-31T14:13:32.728Z,34.60
2022-10-31T14:16:20.271Z,38.83
2022-10-31T14:18:52.632Z,41.30
2022-10-31T14:21:25.609Z,32.45
2022-10-31T14:23:55.150Z,37.25
2022-10-31T14:26:29.283Z,31.65
2022-10-31T14:29:16.686Z,32.92
2022-10-31T14:31:54.154Z,29.83
2022-10-31T14:34:38.821Z,33.25
2022-10-31T14:37:20.768Z,30.88
2022-10-31T14:40:16.762Z,37.30
2022-10-31T14:43:12.954Z,34.03
2022-10-31T14:46:17.278Z,36.55
2022-10-31T14:51:23.394Z,33.35
2022-10-31T14:53:53.570Z,24.88
2022-10-31T14:56:31.729Z,32.25
2022-10-31T14:59:05.662Z,24.15
2022-10-31T15:01:38.018Z,27.45
2022-10-31T15:04:24.365Z,28.33
2022-10-31T15:07:37.375Z,21.75
2022-10-31T15:10:24.969Z,24.33
2022-10-31T15:12:55.239Z,23.83
2022-10-31T15:15:24.660Z,26.23
2022-10-31T15:18:01.520Z,24.90
2022-10-31T15:20:44.552Z,26.80
2022-10-31T15:23:22.908Z,23.73
2022-10-31T15:25:50.120Z,23.35
2022-10-31T15:28:24.674Z,32.67
2022-10-31T15:30:54.685Z,19.98
2022-10-31T15:33:27.851Z,22.67
2022-10-31T15:36:00.188Z,25.88
2022-10-31T15:38:30.440Z,31.42
2022-10-31T15:41:04.163Z,27.38
2022-10-31T15:43:37.343Z,19.70
2022-10-31T15:46:08.558Z,20.98
2022-10-31T15:48:36.624Z,23.05
2022-10-31T15:51:08.443Z,22.33
2022-10-31T15:53:52.504Z,22.50
2022-10-31T15:56:24.001Z,21.55
2022-10-31T15:58:53.650Z,26.60
2022-10-31T16:01:30.730Z,22.38
2022-10-31T16:04:13.049Z,27.50
2022-10-31T16:06:40.346Z,25.88
2022-10-31T16:09:24.390Z,22.08
2022-10-31T16:11:52.178Z,25.25
2022-10-31T16:14:38.664Z,25.52
2022-10-31T16:17:07.080Z,26.45
2022-10-31T16:19:37.893Z,23.90
2022-10-31T16:22:07.225Z,26.77
2022-10-31T16:24:45.592Z,23.63
2022-10-31T16:27:26.809Z,21.70
2022-10-31T16:29:54.219Z,23.88
2022-10-31T16:32:52.852Z,24.08
2022-10-31T16:35:29.992Z,27.05
2022-10-31T16:37:58.840Z,28.95
2022-10-31T16:40:27.474Z,24.50
2022-10-31T16:42:54.525Z,23.20
2022-10-31T16:45:24.933Z,26.42
2022-10-31T16:47:52.588Z,29.90
2022-10-31T16:50:27.597Z,24.13
2022-10-31T16:55:52.343Z,20.90
2022-10-31T16:58:30.866Z,29.85
2022-10-31T17:00:58.642Z,28.65
2022-10-31T17:03:25.670Z,21.25
2022-10-31T17:05:53.087Z,21.20
2022-10-31T17:08:19.882Z,22.17
2022-10-31T17:10:51.371Z,27.92
2022-10-31T17:13:26.115Z,22.60
2022-10-31T17:15:58.983Z,22.02
2022-10-31T17:21:19.916Z,21.60
2022-10-31T17:23:47.710Z,25.48
2022-10-31T17:26:14.697Z,21.45
2022-10-31T17:28:41.717Z,24.55
2022-10-31T17:31:20.965Z,24.88
2022-10-31T17:33:51.010Z,19.17
2022-10-31T17:36:18.994Z,20.20
2022-10-31T17:38:45.832Z,22.58
2022-10-31T17:41:12.756Z,18.70
2022-10-31T17:43:40.692Z,22.70
2022-10-31T17:46:07.973Z,22.05
2022-10-31T17:48:41.319Z,19.80
2022-10-31T17:51:08.584Z,21.83
2022-10-31T17:53:35.907Z,18.92
2022-10-31T17:56:05.195Z,24.17
2022-10-31T17:58:34.234Z,25.83
2022-10-31T18:01:21.315Z,18.25
2022-10-31T18:03:49.046Z,22.73
2022-10-31T18:06:17.015Z,22.80
2022-10-31T18:08:45.866Z,26.40
2022-10-31T18:11:19.806Z,30.33
2022-10-31T18:13:46.979Z,20.73
2022-10-31T18:16:19.782Z,15.60
2022-10-31T18:18:52.414Z,20.47
2022-10-31T18:21:24.012Z,27.92
2022-10-31T18:24:07.481Z,20.83
2022-10-31T18:26:34.597Z,25.83
2022-10-31T18:29:01.883Z,23.45
2022-10-31T18:31:29.317Z,22.70
2022-10-31T18:33:58.092Z,20.17
2022-10-31T18:36:27.804Z,19.88
2022-10-31T18:38:54.600Z,21.05
2022-10-31T18:41:21.614Z,19.75
2022-10-31T18:43:48.805Z,17.60
2022-10-31T18:46:17.992Z,15.27
2022-10-31T18:48:47.699Z,17.77
2022-10-31T18:51:23.139Z,24.88
2022-10-31T18:54:02.327Z,15.98
2022-10-31T18:56:33.181Z,20.65
2022-10-31T18:59:03.402Z,17.13
2022-10-31T19:01:31.634Z,17.83
2022-10-31T19:04:00.230Z,16.45
2022-10-31T19:06:28.565Z,18.95
2022-10-31T19:09:09.754Z,19.70
2022-10-31T19:11:38.840Z,18.63
2022-10-31T19:14:08.658Z,16.90
2022-10-31T19:16:35.670Z,19.58
2022-10-31T19:19:02.827Z,27.73
2022-10-31T19:21:32.488Z,19.05
2022-10-31T19:24:07.462Z,18.58
2022-10-31T19:26:35.164Z,22.85
2022-10-31T19:29:03.346Z,18.88
2022-10-31T19:31:30.841Z,19.23
2022-10-31T19:33:58.070Z,19.25
2022-10-31T19:36:26.827Z,18.58
2022-10-31T19:38:57.157Z,16.67
2022-10-31T19:41:28.870Z,23.15
2022-10-31T19:44:00.047Z,17.93
2022-10-31T19:46:51.783Z,22.98
2022-10-31T19:49:14.695Z,20.60
2022-10-31T19:51:42.232Z,21.70
2022-10-31T19:54:13.953Z,22.75
2022-10-31T19:56:41.454Z,22.10
2022-10-31T19:59:08.806Z,22.42
2022-10-31T20:01:37.278Z,22.30
2022-10-31T20:04:04.750Z,18.33
2022-10-31T20:06:41.496Z,23.17
2022-10-31T20:09:17.807Z,18.27
2022-10-31T20:11:46.294Z,19.00
2022-10-31T20:14:15.967Z,18.52
2022-10-31T20:16:44.583Z,23.45
2022-10-31T20:19:17.541Z,17.55
2022-10-31T20:21:46.564Z,15.75
2022-10-31T20:24:13.553Z,16.23
2022-10-31T20:26:41.239Z,15.65
2022-10-31T20:29:15.217Z,17.67
2022-10-31T20:31:42.585Z,16.20
2022-10-31T20:34:11.762Z,17.88
2022-10-31T20:36:41.592Z,14.95
2022-10-31T20:39:10.137Z,19.58
2022-10-31T20:41:39.956Z,22.42
2022-10-31T20:44:07.161Z,18.60
2022-10-31T20:46:34.594Z,12.15
2022-10-31T20:49:01.657Z,19.30
2022-10-31T20:51:34.091Z,15.85
2022-10-31T20:54:02.078Z,16.93
2022-10-31T20:56:29.184Z,15.40
2022-10-31T20:58:57.414Z,16.58
2022-10-31T21:01:29.176Z,16.85
2022-10-31T21:03:56.713Z,16.85
2022-10-31T21:06:26.700Z,14.18
2022-10-31T21:08:54.552Z,12.57
2022-10-31T21:11:25.377Z,19.10
2022-10-31T21:13:53.284Z,15.35
2022-10-31T21:16:23.576Z,12.70
2022-10-31T21:18:53.577Z,15.90
2022-10-31T21:21:29.144Z,13.70
2022-10-31T21:24:02.625Z,12.52
2022-10-31T21:26:33.756Z,19.50
2022-10-31T21:29:01.619Z,15.90
2022-10-31T21:31:28.980Z,13.13
2022-10-31T21:33:56.307Z,13.38
2022-10-31T21:36:26.447Z,15.45
2022-10-31T21:38:56.462Z,21.40
2022-10-31T21:41:25.184Z,11.57
2022-10-31T21:43:56.423Z,16.90
2022-10-31T21:46:32.763Z,12.63
2022-10-31T21:49:03.850Z,15.90
2022-10-31T21:51:36.055Z,17.50
2022-10-31T21:54:22.984Z,14.55
2022-10-31T21:56:51.956Z,17.90
2022-10-31T21:59:19.433Z,11.93
2022-10-31T22:01:46.859Z,17.38
2022-10-31T22:04:14.268Z,14.10
2022-10-31T22:06:41.467Z,12.57
2022-10-31T22:09:10.710Z,14.98
2022-10-31T22:11:41.256Z,13.65
2022-10-31T22:14:13.073Z,15.50
2022-10-31T22:16:41.021Z,10.40
2022-10-31T22:19:13.460Z,16.20
2022-10-31T22:21:43.943Z,24.23
2022-10-31T22:24:11.357Z,15.15
2022-10-31T22:26:39.266Z,15.80
2022-10-31T22:29:10.819Z,16.48
2022-10-31T22:31:43.898Z,14.98
2022-10-31T22:34:11.773Z,20.40
2022-10-31T22:36:40.642Z,15.00
2022-10-31T22:39:10.061Z,18.08
2022-10-31T22:41:38.215Z,14.70
2022-10-31T22:44:06.640Z,14.10
2022-10-31T22:46:36.244Z,21.02
2022-10-31T22:49:06.428Z,11.07
2022-10-31T22:51:39.265Z,20.33
2022-10-31T22:54:10.800Z,14.20
2022-10-31T22:56:38.427Z,14.57
2022-10-31T22:59:09.060Z,14.18
2022-10-31T23:01:36.553Z,10.38
2022-10-31T23:04:04.132Z,16.67
2022-10-31T23:06:33.995Z,12.90
2022-10-31T23:09:07.225Z,12.77
2022-10-31T23:11:42.525Z,13.13
2022-10-31T23:14:18.616Z,15.93
2022-10-31T23:16:56.611Z,15.52
2022-10-31T23:19:29.808Z,17.50
2022-10-31T23:22:00.423Z,16.42
2022-10-31T23:24:36.806Z,10.82
2022-10-31T23:27:09.332Z,15.02
2022-10-31T23:29:45.844Z,14.02
2022-10-31T23:32:15.929Z,22.27
2022-10-31T23:34:43.706Z,11.68
2022-10-31T23:37:11.380Z,19.90
2022-10-31T23:39:38.326Z,12.32
2022-10-31T23:42:07.075Z,14.55
2022-10-31T23:44:33.984Z,18.65
2022-10-31T23:47:03.900Z,14.02
2022-10-31T23:49:30.871Z,15.07
2022-10-31T23:51:58.074Z,21.30
2022-10-31T23:54:26.488Z,17.20
2022-10-31T23:56:53.716Z,16.38
2022-10-31T23:59:22.898Z,12.23
